Time;durP1;ratioP1;P1;durP2;ratioP2;P2;SDS_P1;SDS_P2;PMS_P1;PMS_P2;Temp;Humidity;BMP_temperature;BMP_pressure;BME280_temperature;BME280_humidity;BME280_pressure;Samples;Min_cycle;Max_cycle;Signal;HPM_P1;HPM_P2
2021/01/06 00:00:14;;;;;;;7.40;4.45;;;3.20;99.90;;;;;;4967470;28;20035;-76
2021/01/06 00:02:40;;;;;;;11.10;4.50;;;3.20;99.90;;;;;;4964453;28;20042;-75
2021/01/06 00:05:11;;;;;;;8.75;4.78;;;3.10;99.90;;;;;;4957423;28;20038;-76
2021/01/06 00:07:44;;;;;;;8.30;4.10;;;3.20;99.90;;;;;;4976674;28;20045;-76
2021/01/06 00:10:12;;;;;;;9.40;4.10;;;3.20;99.90;;;;;;4988915;28;20122;-76
2021/01/06 00:12:40;;;;;;;10.93;5.03;;;3.20;99.90;;;;;;4976776;28;20026;-76
2021/01/06 00:15:06;;;;;;;8.27;4.40;;;3.20;99.90;;;;;;4969444;28;20475;-75
2021/01/06 00:17:32;;;;;;;7.88;4.53;;;3.20;99.90;;;;;;4976038;28;20100;-77
2021/01/06 00:19:58;;;;;;;7.13;4.55;;;3.30;99.90;;;;;;4972980;28;20774;-77
2021/01/06 00:22:24;;;;;;;10.23;4.47;;;3.30;99.90;;;;;;4965631;28;20031;-77
2021/01/06 00:24:50;;;;;;;8.45;4.45;;;3.40;99.90;;;;;;4956526;28;20044;-76
2021/01/06 00:27:15;;;;;;;10.63;5.22;;;3.40;99.90;;;;;;4970337;28;20855;-76
2021/01/06 00:29:41;;;;;;;9.85;4.80;;;3.30;99.90;;;;;;4960652;28;20161;-77
2021/01/06 00:32:06;;;;;;;10.02;4.80;;;3.40;99.90;;;;;;4970084;28;20030;-76
2021/01/06 00:34:32;;;;;;;10.80;5.07;;;3.40;99.90;;;;;;4967266;28;20033;-76
2021/01/06 00:36:58;;;;;;;9.40;4.90;;;3.50;99.90;;;;;;4966645;28;20571;-76
2021/01/06 00:39:23;;;;;;;10.35;5.03;;;3.40;99.90;;;;;;4968748;28;20038;-75
2021/01/06 00:41:49;;;;;;;8.57;5.13;;;3.50;99.90;;;;;;4968340;28;20089;-76
2021/01/06 00:44:15;;;;;;;7.85;5.10;;;3.40;99.90;;;;;;4964909;28;20693;-76
2021/01/06 00:46:40;;;;;;;9.43;4.93;;;3.40;99.90;;;;;;4964352;28;20045;-76
2021/01/06 00:49:07;;;;;;;7.97;4.60;;;3.40;99.90;;;;;;4952825;28;20073;-76
2021/01/06 00:51:32;;;;;;;9.15;4.47;;;3.40;99.90;;;;;;4980564;28;20134;-75
2021/01/06 00:53:58;;;;;;;12.93;4.70;;;3.40;99.90;;;;;;4976575;28;20486;-76
2021/01/06 00:56:30;;;;;;;9.43;4.63;;;3.40;99.90;;;;;;4989688;28;20716;-76
2021/01/06 00:58:57;;;;;;;9.38;4.85;;;3.40;99.90;;;;;;4979468;28;20031;-75
2021/01/06 01:01:24;;;;;;;10.30;5.28;;;3.40;99.90;;;;;;4971615;28;20517;-76
2021/01/06 01:03:50;;;;;;;12.20;4.82;;;3.40;99.90;;;;;;4977458;28;20038;-75
2021/01/06 01:06:31;;;;;;;10.93;4.53;;;3.40;99.90;;;;;;4971543;28;20383;-76
2021/01/06 01:08:58;;;;;;;8.70;4.18;;;3.50;99.90;;;;;;4966848;28;20039;-75
2021/01/06 01:11:24;;;;;;;9.30;4.43;;;3.50;99.90;;;;;;4976794;28;20034;-77
2021/01/06 01:13:51;;;;;;;8.93;4.60;;;3.50;99.90;;;;;;4978529;28;20113;-76
2021/01/06 01:16:18;;;;;;;11.10;5.32;;;3.40;99.90;;;;;;4971015;28;20050;-77
2021/01/06 01:18:44;;;;;;;9.40;4.78;;;3.50;99.90;;;;;;4981323;28;20741;-76
2021/01/06 01:21:10;;;;;;;13.10;4.80;;;3.50;99.90;;;;;;4986488;28;20047;-77
2021/01/06 01:23:36;;;;;;;8.88;4.47;;;3.60;99.90;;;;;;4963400;28;20034;-76
2021/01/06 01:26:02;;;;;;;10.13;4.28;;;3.50;99.90;;;;;;4979246;28;20026;-77
2021/01/06 01:28:28;;;;;;;7.90;4.13;;;3.40;99.90;;;;;;4973250;28;20120;-77
2021/01/06 01:30:55;;;;;;;9.75;4.70;;;3.40;99.90;;;;;;4981839;28;20030;-77
2021/01/06 01:33:22;;;;;;;9.20;4.55;;;3.50;99.90;;;;;;4966082;28;20039;-77
2021/01/06 01:35:48;;;;;;;9.35;4.78;;;3.50;99.90;;;;;;4971478;28;20189;-77
2021/01/06 01:38:20;;;;;;;12.73;4.85;;;3.60;99.90;;;;;;4958557;28;20910;-77
2021/01/06 01:40:47;;;;;;;10.73;4.70;;;3.50;99.90;;;;;;4967012;28;20045;-77
2021/01/06 01:43:12;;;;;;;11.85;4.63;;;3.60;99.90;;;;;;4976943;28;20030;-77
2021/01/06 01:45:50;;;;;;;9.80;4.90;;;3.60;99.90;;;;;;4968996;28;20061;-77
2021/01/06 01:48:28;;;;;;;7.68;4.40;;;3.50;99.90;;;;;;4957972;28;20400;-77
2021/01/06 01:50:57;;;;;;;8.45;4.30;;;3.50;99.90;;;;;;4973973;28;20066;-76
2021/01/06 01:54:06;;;;;;;8.43;4.65;;;3.50;99.90;;;;;;4979780;28;20817;-77
2021/01/06 01:56:43;;;;;;;13.48;4.72;;;3.50;99.90;;;;;;4975836;28;20518;-77
2021/01/06 01:59:15;;;;;;;7.72;4.35;;;3.50;99.90;;;;;;4977391;28;20624;-76
2021/01/06 02:01:41;;;;;;;9.77;4.55;;;3.50;99.90;;;;;;4973579;28;20031;-76
2021/01/06 02:04:26;;;;;;;9.15;4.53;;;3.40;99.90;;;;;;4970590;28;20049;-76
2021/01/06 02:07:16;;;;;;;7.30;3.97;;;3.40;99.90;;;;;;4972885;28;20030;-76
2021/01/06 02:09:54;;;;;;;6.95;4.03;;;3.40;99.90;;;;;;4972541;28;20660;-76
2021/01/06 02:13:03;;;;;;;10.60;4.78;;;3.40;99.90;;;;;;4973197;28;20300;-76
2021/01/06 02:15:43;;;;;;;8.98;3.83;;;3.40;99.90;;;;;;4964099;28;20050;-76
2021/01/06 02:18:10;;;;;;;12.77;4.20;;;3.40;99.90;;;;;;4971246;28;20054;-75
2021/01/06 02:20:36;;;;;;;8.05;4.05;;;3.50;99.90;;;;;;4975247;28;20495;-76
2021/01/06 02:23:02;;;;;;;7.88;4.00;;;3.60;99.90;;;;;;4976834;28;20034;-77
2021/01/06 02:25:30;;;;;;;10.23;4.05;;;3.50;99.90;;;;;;4973003;28;20034;-76
2021/01/06 02:27:58;;;;;;;9.38;4.05;;;3.40;99.90;;;;;;4960485;28;20031;-77
2021/01/06 02:30:25;;;;;;;8.65;3.72;;;3.40;99.90;;;;;;4968573;28;20109;-77
2021/01/06 02:32:52;;;;;;;7.22;3.90;;;3.40;99.90;;;;;;4984422;28;20826;-76
2021/01/06 02:35:19;;;;;;;7.18;3.50;;;3.50;99.90;;;;;;4963660;28;20089;-77
2021/01/06 02:37:44;;;;;;;7.28;3.33;;;3.50;99.90;;;;;;4983342;28;20476;-77
2021/01/06 02:40:11;;;;;;;8.68;3.20;;;3.40;99.90;;;;;;4972160;28;20074;-76
2021/01/06 02:42:38;;;;;;;7.25;3.47;;;3.50;99.90;;;;;;4972273;28;20034;-76
2021/01/06 02:45:11;;;;;;;5.25;3.03;;;3.50;99.90;;;;;;4959075;28;20046;-77
2021/01/06 02:47:37;;;;;;;8.35;2.60;;;3.40;99.90;;;;;;4951886;28;20146;-77
2021/01/06 02:50:06;;;;;;;4.72;2.88;;;3.40;99.90;;;;;;4972869;28;20405;-78
2021/01/06 02:52:55;;;;;;;5.57;3.08;;;3.30;99.90;;;;;;4962870;28;20035;-77
2021/01/06 02:55:23;;;;;;;5.53;3.35;;;3.30;99.90;;;;;;4948337;28;20047;-77
2021/01/06 02:57:49;;;;;;;4.78;2.65;;;3.30;99.90;;;;;;4976978;28;20137;-77
2021/01/06 03:00:21;;;;;;;7.88;2.83;;;3.40;99.90;;;;;;4964830;28;20031;-78
2021/01/06 03:02:48;;;;;;;4.07;2.70;;;3.40;99.90;;;;;;4948779;28;20066;-78
2021/01/06 03:05:32;;;;;;;2.90;2.20;;;3.40;99.90;;;;;;4953287;28;20054;-79
2021/01/06 03:07:58;;;;;;;7.55;2.88;;;3.30;99.90;;;;;;4977153;28;20039;-79
2021/01/06 03:10:23;;;;;;;4.05;2.25;;;3.30;99.90;;;;;;4986643;28;20112;-78
2021/01/06 03:12:52;;;;;;;6.47;2.60;;;3.30;99.90;;;;;;4962766;28;20494;-79
2021/01/06 03:15:21;;;;;;;6.90;2.58;;;3.40;99.90;;;;;;4966957;28;20042;-79
2021/01/06 03:17:48;;;;;;;6.43;2.63;;;3.50;99.90;;;;;;4942551;28;20046;-79
2021/01/06 03:20:42;;;;;;;6.25;2.70;;;3.40;99.90;;;;;;4960827;28;20038;-80
2021/01/06 03:23:24;;;;;;;5.65;2.10;;;3.50;99.90;;;;;;4978071;28;20116;-80
2021/01/06 03:25:50;;;;;;;4.15;2.20;;;3.40;99.90;;;;;;4965190;28;20063;-80
2021/01/06 03:28:19;;;;;;;4.93;2.22;;;3.30;99.90;;;;;;4971860;28;20042;-80
2021/01/06 03:30:46;;;;;;;3.45;2.17;;;3.30;99.90;;;;;;4959342;28;20069;-80
2021/01/06 03:33:35;;;;;;;4.30;2.03;;;3.20;99.90;;;;;;4967122;28;20041;-80
2021/01/06 03:36:09;;;;;;;5.20;1.60;;;3.20;99.90;;;;;;4953065;28;20043;-79
2021/01/06 03:38:43;;;;;;;1.92;1.40;;;3.20;99.90;;;;;;4946928;28;20479;-79
2021/01/06 03:41:09;;;;;;;3.40;1.45;;;3.20;99.90;;;;;;4953243;28;20554;-80
2021/01/06 03:43:46;;;;;;;2.17;1.58;;;3.10;99.90;;;;;;4977085;28;20035;-79
2021/01/06 03:46:19;;;;;;;2.63;1.30;;;3.20;99.90;;;;;;4954769;28;20129;-79
2021/01/06 03:49:17;;;;;;;2.28;1.60;;;3.10;99.90;;;;;;4976757;28;20522;-79
2021/01/06 03:52:07;;;;;;;3.70;1.85;;;3.10;99.90;;;;;;4969169;28;20065;-79
2021/01/06 03:54:37;;;;;;;2.83;1.45;;;3.00;99.90;;;;;;4969842;28;20022;-78
2021/01/06 03:57:05;;;;;;;2.60;1.73;;;3.00;99.90;;;;;;4955323;28;20121;-77
2021/01/06 03:59:34;;;;;;;4.03;1.83;;;3.10;99.90;;;;;;4980515;28;20122;-78
2021/01/06 04:02:22;;;;;;;2.63;1.75;;;3.20;99.90;;;;;;4978685;28;20041;-79
2021/01/06 04:05:12;;;;;;;2.78;1.75;;;3.10;99.90;;;;;;4971618;28;20057;-79
2021/01/06 04:07:48;;;;;;;2.65;1.63;;;3.20;99.90;;;;;;4981388;28;20068;-77
2021/01/06 04:10:31;;;;;;;2.17;1.65;;;3.10;99.90;;;;;;4978949;28;20096;-78
2021/01/06 04:12:57;;;;;;;3.42;1.70;;;3.10;99.90;;;;;;4974596;28;20079;-77
2021/01/06 04:15:23;;;;;;;2.67;1.33;;;3.00;99.90;;;;;;4984019;28;20117;-78
2021/01/06 04:17:51;;;;;;;2.35;1.48;;;3.00;99.90;;;;;;4970223;28;20376;-78
2021/01/06 04:20:38;;;;;;;3.70;1.52;;;3.00;99.90;;;;;;4970725;28;20118;-78
2021/01/06 04:23:11;;;;;;;1.73;1.30;;;3.10;99.90;;;;;;4969942;28;20605;-78
2021/01/06 04:25:45;;;;;;;1.90;1.50;;;3.10;99.90;;;;;;4967680;28;20033;-79
2021/01/06 04:28:18;;;;;;;2.35;1.20;;;2.90;99.90;;;;;;4971380;28;20039;-79
2021/01/06 04:31:03;;;;;;;2.05;1.40;;;2.90;99.90;;;;;;4963697;28;20167;-79
2021/01/06 04:33:30;;;;;;;3.08;1.40;;;2.90;99.90;;;;;;4962744;28;20042;-78
2021/01/06 04:35:58;;;;;;;2.33;1.67;;;2.90;99.90;;;;;;4963601;28;20026;-78
2021/01/06 04:38:28;;;;;;;2.58;1.52;;;3.00;99.90;;;;;;4962903;28;20153;-78
2021/01/06 04:40:57;;;;;;;2.40;1.27;;;3.00;99.90;;;;;;4987707;28;20589;-80
2021/01/06 04:43:43;;;;;;;2.38;1.50;;;3.00;99.90;;;;;;4980656;28;20085;-79
2021/01/06 04:46:15;;;;;;;;;;;3.00;99.90;;;;;;4979012;28;20046;-81
2021/01/06 04:48:57;;;;;;;2.03;1.10;;;2.90;99.90;;;;;;4966439;28;20348;-81
2021/01/06 04:51:37;;;;;;;3.33;1.40;;;3.00;99.90;;;;;;4981980;28;20042;-79
2021/01/06 04:54:41;;;;;;;1.70;1.17;;;3.00;99.90;;;;;;4979463;28;20219;-80
2021/01/06 04:57:23;;;;;;;1.58;1.10;;;2.90;99.90;;;;;;4991236;28;20041;-80
2021/01/06 05:00:02;;;;;;;3.50;1.30;;;2.90;99.90;;;;;;4970317;28;20026;-79
2021/01/06 05:03:00;;;;;;;2.00;1.20;;;2.90;99.90;;;;;;4942942;29;20058;-80
2021/01/06 05:06:02;;;;;;;2.13;1.10;;;2.90;99.90;;;;;;4908086;28;20050;-81
2021/01/06 05:08:44;;;;;;;2.05;1.02;;;2.80;99.90;;;;;;4960780;28;20047;-80
2021/01/06 05:11:20;;;;;;;1.40;0.98;;;2.80;99.90;;;;;;4965574;28;20051;-81
2021/01/06 05:13:48;;;;;;;2.08;1.10;;;2.80;99.90;;;;;;4951708;28;20045;-81
2021/01/06 05:16:19;;;;;;;1.50;1.00;;;2.80;99.90;;;;;;4981423;28;20153;-81
2021/01/06 05:18:46;;;;;;;1.63;0.85;;;2.70;99.90;;;;;;4971471;28;20039;-86
2021/01/06 05:21:22;;;;;;;1.92;0.50;;;2.80;99.90;;;;;;4990790;28;20026;-84
2021/01/06 05:23:54;;;;;;;1.02;0.73;;;2.70;99.90;;;;;;4958128;28;20539;-84
2021/01/06 05:26:20;;;;;;;2.28;0.80;;;2.70;99.90;;;;;;4971155;28;20530;-84
2021/01/06 05:28:49;;;;;;;1.65;0.90;;;2.70;99.90;;;;;;4946884;28;20042;-83
2021/01/06 05:31:15;;;;;;;1.55;0.70;;;2.70;99.90;;;;;;4979466;28;20844;-81
2021/01/06 05:33:45;;;;;;;0.95;0.70;;;2.60;99.90;;;;;;4977799;28;20026;-81
2021/01/06 05:36:18;;;;;;;0.73;0.68;;;2.60;99.90;;;;;;4969347;28;20046;-81
2021/01/06 05:38:44;;;;;;;1.00;0.80;;;2.70;99.90;;;;;;4974222;28;20045;-80
2021/01/06 05:41:09;;;;;;;1.77;0.80;;;2.60;99.90;;;;;;4964216;28;20057;-80
2021/01/06 05:43:42;;;;;;;1.65;0.70;;;2.50;99.90;;;;;;4957838;28;20049;-80
2021/01/06 05:46:20;;;;;;;1.42;0.70;;;2.50;99.90;;;;;;4974041;28;20044;-82
2021/01/06 05:49:18;;;;;;;0.90;0.80;;;2.50;99.90;;;;;;4973096;28;20041;-83
2021/01/06 05:51:53;;;;;;;1.30;0.80;;;2.50;99.90;;;;;;4959261;28;20041;-83
2021/01/06 05:54:39;;;;;;;;;;;2.60;99.90;;;;;;4992363;28;20080;-80
2021/01/06 05:57:10;;;;;;;2.17;0.80;;;2.50;99.90;;;;;;4959279;28;19914;-80
2021/01/06 05:59:46;;;;;;;2.05;1.00;;;2.40;99.90;;;;;;4953857;28;20070;-80
2021/01/06 06:02:18;;;;;;;1.02;0.80;;;2.50;99.90;;;;;;4980405;28;20134;-80
2021/01/06 06:05:05;;;;;;;1.95;0.82;;;2.50;99.90;;;;;;4980296;28;20034;-80
2021/01/06 06:07:42;;;;;;;2.03;1.15;;;2.40;99.90;;;;;;4976418;28;20034;-80
2021/01/06 06:10:29;;;;;;;2.03;1.10;;;2.40;99.90;;;;;;4980606;28;20095;-80
2021/01/06 06:13:17;;;;;;;0.98;0.85;;;2.40;99.90;;;;;;4980498;28;20771;-79
2021/01/06 06:16:33;;;;;;;1.58;0.90;;;2.40;99.90;;;;;;4968862;28;20027;-79
2021/01/06 06:19:08;;;;;;;1.23;0.80;;;2.30;99.90;;;;;;4980686;28;20034;-78
2021/01/06 06:21:46;;;;;;;2.90;1.23;;;2.40;99.90;;;;;;4963801;28;20043;-79
2021/01/06 06:24:33;;;;;;;1.10;0.80;;;2.40;99.90;;;;;;4963136;28;20177;-78
2021/01/06 06:27:18;;;;;;;0.70;0.70;;;2.30;99.90;;;;;;4970720;28;20031;-78
2021/01/06 06:30:07;;;;;;;1.35;0.88;;;2.30;99.90;;;;;;4984637;28;20114;-77
2021/01/06 06:32:33;;;;;;;1.38;0.90;;;2.40;99.90;;;;;;4961684;28;20455;-79
2021/01/06 06:35:26;;;;;;;1.08;0.85;;;2.40;99.90;;;;;;4963008;28;20106;-78
2021/01/06 06:37:58;;;;;;;1.73;1.20;;;2.30;99.90;;;;;;4962329;28;20494;-75
2021/01/06 06:40:26;;;;;;;3.20;1.08;;;2.30;99.90;;;;;;4966338;28;20039;-76
2021/01/06 06:42:57;;;;;;;0.93;0.85;;;2.30;99.90;;;;;;4976892;28;20523;-73
2021/01/06 06:45:46;;;;;;;10.20;1.70;;;2.20;99.90;;;;;;4983947;28;20035;-77
2021/01/06 06:48:36;;;;;;;1.00;0.70;;;2.20;99.90;;;;;;4955168;28;20045;-75
2021/01/06 06:51:12;;;;;;;0.93;0.80;;;2.20;99.90;;;;;;4967409;28;20623;-76
2021/01/06 06:53:37;;;;;;;1.65;1.15;;;2.20;99.90;;;;;;4966825;28;20030;-76
2021/01/06 06:56:16;;;;;;;1.00;0.85;;;2.20;99.90;;;;;;4980470;28;20061;-76
2021/01/06 06:58:52;;;;;;;1.52;1.02;;;2.20;99.90;;;;;;4967015;28;20748;-76
2021/01/06 07:01:23;;;;;;;1.95;1.20;;;2.20;99.90;;;;;;4970674;28;20164;-76
2021/01/06 07:04:15;;;;;;;1.13;0.90;;;2.30;99.90;;;;;;4964379;28;20772;-76
2021/01/06 07:06:49;;;;;;;6.32;2.25;;;2.20;99.90;;;;;;4962387;28;20038;-76
2021/01/06 07:09:17;;;;;;;6.35;2.78;;;2.20;99.90;;;;;;4974487;28;20413;-77
2021/01/06 07:11:48;;;;;;;1.52;1.08;;;2.20;99.90;;;;;;4972947;28;20066;-78
2021/01/06 07:14:23;;;;;;;1.10;1.00;;;2.20;99.90;;;;;;4952624;28;20180;-83
2021/01/06 07:16:52;;;;;;;;;;;2.20;99.90;;;;;;4971829;28;20038;-83
2021/01/06 07:19:34;;;;;;;1.73;1.10;;;2.20;99.90;;;;;;4965486;28;19918;-81
2021/01/06 07:22:04;;;;;;;1.45;1.20;;;2.10;99.90;;;;;;4966390;28;20641;-83
2021/01/06 07:24:30;;;;;;;1.83;1.05;;;2.30;99.90;;;;;;4976792;28;20046;-82
2021/01/06 07:27:00;;;;;;;1.27;0.90;;;2.20;99.90;;;;;;4949393;28;20035;-82
2021/01/06 07:29:32;;;;;;;1.45;1.17;;;2.30;99.90;;;;;;4965348;28;20811;-82
2021/01/06 07:32:08;;;;;;;1.85;1.23;;;2.30;99.90;;;;;;4959970;28;20030;-77
2021/01/06 07:34:53;;;;;;;2.03;1.42;;;2.30;99.90;;;;;;4969817;28;20225;-80
2021/01/06 07:37:28;;;;;;;1.90;1.30;;;2.30;99.90;;;;;;4952078;28;20720;-81
2021/01/06 07:40:23;;;;;;;1.77;1.27;;;2.40;99.90;;;;;;4959224;28;20384;-81
2021/01/06 07:43:12;;;;;;;2.33;1.27;;;2.40;99.90;;;;;;4968603;28;20121;-82
2021/01/06 07:45:49;;;;;;;2.67;1.48;;;2.40;99.90;;;;;;4962431;28;20044;-81
2021/01/06 07:48:15;;;;;;;2.75;1.63;;;2.40;99.90;;;;;;4971095;28;20498;-81
2021/01/06 07:50:49;;;;;;;2.33;1.10;;;2.40;99.90;;;;;;4966849;28;20035;-81
2021/01/06 07:53:18;;;;;;;2.08;1.40;;;2.40;99.90;;;;;;4968192;28;20034;-80
2021/01/06 07:55:56;;;;;;;2.42;1.50;;;2.40;99.90;;;;;;4978722;28;20242;-80
2021/01/06 07:58:37;;;;;;;2.33;1.42;;;2.50;99.90;;;;;;4984831;28;20054;-80
2021/01/06 08:01:32;;;;;;;6.82;2.70;;;2.50;99.90;;;;;;4964996;28;20062;-78
2021/01/06 08:04:08;;;;;;;4.72;2.15;;;2.40;99.90;;;;;;4972108;28;20038;-78
2021/01/06 08:06:49;;;;;;;4.18;2.20;;;2.50;99.90;;;;;;4960231;28;20035;-78
2021/01/06 08:09:35;;;;;;;2.88;1.70;;;2.50;99.90;;;;;;4962375;28;20709;-79
2021/01/06 08:12:23;;;;;;;3.85;2.40;;;2.70;99.90;;;;;;4951341;28;20039;-83
2021/01/06 08:15:04;;;;;;;2.40;1.42;;;2.60;99.90;;;;;;4965870;28;20034;-82
2021/01/06 08:17:41;;;;;;;17.52;10.20;;;2.70;99.90;;;;;;4946976;28;20130;-82
2021/01/06 08:20:10;;;;;;;3.70;1.73;;;2.60;99.90;;;;;;4959888;28;20040;-83
2021/01/06 08:23:03;;;;;;;1.92;1.35;;;2.70;99.90;;;;;;4988517;28;20030;-84
2021/01/06 08:25:33;;;;;;;1.90;1.60;;;2.70;99.90;;;;;;4955261;28;20066;-84
2021/01/06 08:27:58;;;;;;;4.35;1.70;;;2.70;99.90;;;;;;4945800;28;20035;-84
2021/01/06 08:30:28;;;;;;;2.15;1.63;;;2.60;99.90;;;;;;4947893;28;20046;-84
2021/01/06 08:33:20;;;;;;;1.95;1.52;;;2.70;99.90;;;;;;4952434;28;20030;-82
2021/01/06 08:35:49;;;;;;;3.28;1.60;;;2.70;99.90;;;;;;4955621;28;20051;-77
2021/01/06 08:38:33;;;;;;;2.72;1.50;;;2.70;99.90;;;;;;4955313;28;20034;-77
2021/01/06 08:41:18;;;;;;;4.07;1.95;;;2.70;99.90;;;;;;4970743;28;20141;-77
2021/01/06 08:43:45;;;;;;;3.05;1.70;;;2.60;99.90;;;;;;4982090;28;20048;-77
2021/01/06 08:46:26;;;;;;;3.05;1.40;;;2.60;99.90;;;;;;4956548;28;20031;-77
2021/01/06 08:48:52;;;;;;;2.83;1.90;;;2.60;99.90;;;;;;4977406;28;20042;-77
2021/01/06 08:51:31;;;;;;;9.00;5.10;;;2.70;99.90;;;;;;4967034;28;20082;-77
2021/01/06 08:53:57;;;;;;;5.20;2.90;;;2.80;99.90;;;;;;4964839;28;20065;-77
2021/01/06 08:56:28;;;;;;;12.98;4.47;;;2.80;99.90;;;;;;4957901;28;20471;-78
2021/01/06 08:58:56;;;;;;;71.65;27.17;;;2.80;99.90;;;;;;4959032;28;20039;-78
2021/01/06 09:01:26;;;;;;;14.63;6.43;;;2.80;99.90;;;;;;4970197;28;20078;-78
2021/01/06 09:04:04;;;;;;;5.50;3.55;;;2.80;99.90;;;;;;4967572;28;20039;-78
2021/01/06 09:06:30;;;;;;;4.82;3.35;;;2.80;99.90;;;;;;4986350;28;20491;-78
2021/01/06 09:09:02;;;;;;;2.88;2.20;;;2.70;99.90;;;;;;4943520;28;20055;-79
2021/01/06 09:11:29;;;;;;;4.95;3.30;;;2.80;99.90;;;;;;4954194;28;20045;-80
2021/01/06 09:14:06;;;;;;;6.43;2.97;;;2.70;99.90;;;;;;4975426;28;20786;-80
2021/01/06 09:16:56;;;;;;;4.35;2.53;;;2.70;99.90;;;;;;4982385;28;20026;-80
2021/01/06 09:20:01;;;;;;;6.53;2.33;;;2.80;99.90;;;;;;4983260;28;20822;-82
2021/01/06 09:22:27;;;;;;;2.92;2.00;;;2.80;99.90;;;;;;4966969;28;20066;-79
2021/01/06 09:24:54;;;;;;;4.70;3.50;;;2.80;99.90;;;;;;4983315;28;20827;-79
2021/01/06 09:27:32;;;;;;;1.88;1.50;;;2.80;99.90;;;;;;4972293;28;20027;-79
2021/01/06 09:29:59;;;;;;;7.05;6.20;;;2.90;99.90;;;;;;4973253;28;20046;-79
2021/01/06 09:32:32;;;;;;;3.22;2.60;;;2.90;99.90;;;;;;4976675;28;20120;-79
2021/01/06 09:35:06;;;;;;;2.75;2.30;;;2.90;99.90;;;;;;4961860;28;20472;-79
2021/01/06 09:37:35;;;;;;;3.78;2.30;;;3.00;99.90;;;;;;4976913;28;20041;-78
2021/01/06 09:40:16;;;;;;;2.95;1.50;;;3.00;99.90;;;;;;4968168;28;20043;-78
2021/01/06 09:42:43;;;;;;;3.33;1.50;;;3.00;99.90;;;;;;4973359;28;20034;-79
2021/01/06 09:45:20;;;;;;;4.82;1.30;;;3.00;99.90;;;;;;4972291;28;20062;-78
2021/01/06 09:47:47;;;;;;;1.73;1.40;;;3.10;99.90;;;;;;4943088;29;20035;-75
2021/01/06 09:50:21;;;;;;;2.47;1.70;;;3.10;99.90;;;;;;4962549;28;20066;-78
2021/01/06 09:52:49;;;;;;;2.75;1.80;;;3.00;99.90;;;;;;4969552;28;20038;-78
2021/01/06 09:55:19;;;;;;;3.58;2.00;;;3.00;99.90;;;;;;4972462;28;20092;-76
2021/01/06 09:58:09;;;;;;;2.67;1.75;;;3.10;99.90;;;;;;4971126;28;20031;-76
2021/01/06 10:00:49;;;;;;;2.90;1.58;;;3.00;99.90;;;;;;4964509;28;20043;-78
2021/01/06 10:03:20;;;;;;;3.92;1.50;;;3.10;99.90;;;;;;4989944;28;20193;-81
2021/01/06 10:05:55;;;;;;;6.63;3.10;;;3.10;99.90;;;;;;4980272;28;20040;-77
2021/01/06 10:08:58;;;;;;;4.10;2.20;;;3.10;99.90;;;;;;4943032;28;20122;-79
2021/01/06 10:11:57;;;;;;;2.50;1.70;;;3.00;99.90;;;;;;4937725;28;20626;-79
2021/01/06 10:14:44;;;;;;;3.65;1.80;;;3.10;99.90;;;;;;4968932;28;20035;-79
2021/01/06 10:17:32;;;;;;;3.72;1.45;;;3.10;99.90;;;;;;4981860;28;20670;-79
2021/01/06 10:20:12;;;;;;;2.83;1.58;;;3.00;99.90;;;;;;4964391;28;20635;-80
2021/01/06 10:22:53;;;;;;;10.90;6.55;;;3.00;99.90;;;;;;4973216;28;20438;-79
2021/01/06 10:25:24;;;;;;;2.45;1.80;;;3.00;99.90;;;;;;4964098;28;20038;-80
2021/01/06 10:27:56;;;;;;;6.28;3.05;;;3.10;99.90;;;;;;4942516;28;20034;-80
2021/01/06 10:30:24;;;;;;;1.90;1.50;;;3.00;99.90;;;;;;4960835;28;20084;-79
2021/01/06 10:33:16;;;;;;;3.70;1.60;;;3.00;99.90;;;;;;4985177;28;20101;-80
2021/01/06 10:35:57;;;;;;;5.05;2.03;;;3.00;99.90;;;;;;4950820;28;20145;-81
2021/01/06 10:38:34;;;;;;;3.95;2.00;;;3.10;99.90;;;;;;4968231;28;20031;-83
2021/01/06 10:41:18;;;;;;;10.82;4.97;;;3.10;99.90;;;;;;4960774;28;20034;-75
2021/01/06 10:43:50;;;;;;;2.72;1.83;;;3.00;99.90;;;;;;4969524;28;20042;-81
2021/01/06 10:46:39;;;;;;;2.58;1.80;;;2.90;99.90;;;;;;4957778;28;20051;-80
2021/01/06 10:49:47;;;;;;;3.20;2.03;;;2.90;99.90;;;;;;4985646;28;20070;-81
2021/01/06 10:52:22;;;;;;;4.32;2.60;;;2.90;99.90;;;;;;4966204;28;20113;-81
2021/01/06 10:54:50;;;;;;;3.93;2.37;;;2.90;99.90;;;;;;4942129;28;20821;-81
2021/01/06 10:57:29;;;;;;;4.07;2.22;;;3.00;99.90;;;;;;4943618;28;20035;-80
2021/01/06 11:00:19;;;;;;;3.15;2.15;;;3.00;99.90;;;;;;4975371;28;20036;-82
2021/01/06 11:03:22;;;;;;;3.58;1.92;;;2.90;99.90;;;;;;4969559;28;20026;-82
2021/01/06 11:06:19;;;;;;;4.45;1.92;;;2.90;99.90;;;;;;4964016;28;20069;-78
2021/01/06 11:09:19;;;;;;;3.58;2.30;;;2.90;99.90;;;;;;4968178;28;20058;-82
2021/01/06 11:12:00;;;;;;;2.70;1.90;;;2.90;99.90;;;;;;4939088;28;20038;-76
2021/01/06 11:14:55;;;;;;;2.80;1.73;;;2.90;99.90;;;;;;4979771;28;20037;-81
2021/01/06 11:17:34;;;;;;;3.47;2.22;;;2.90;99.90;;;;;;4970104;28;20043;-80
2021/01/06 11:20:23;;;;;;;3.30;2.20;;;3.00;99.90;;;;;;4962170;28;20038;-80
2021/01/06 11:22:50;;;;;;;3.15;2.10;;;3.10;99.90;;;;;;4945730;28;20034;-81
2021/01/06 11:25:35;;;;;;;2.92;1.73;;;3.20;99.90;;;;;;4949004;28;20030;-81
2021/01/06 11:28:04;;;;;;;3.60;1.67;;;3.20;99.90;;;;;;4968204;28;20078;-81
2021/01/06 11:30:33;;;;;;;3.25;2.08;;;3.20;99.90;;;;;;4955825;28;20070;-84
2021/01/06 11:33:14;;;;;;;4.45;2.92;;;3.10;99.90;;;;;;4980288;28;20018;-83
2021/01/06 11:35:58;;;;;;;2.63;1.95;;;3.00;99.90;;;;;;4976451;28;20069;-82
2021/01/06 11:38:49;;;;;;;3.22;2.03;;;3.10;99.90;;;;;;4959477;28;20046;-81
2021/01/06 11:41:19;;;;;;;2.33;1.50;;;3.10;99.90;;;;;;4945766;28;20031;-81
2021/01/06 11:43:51;;;;;;;3.53;1.60;;;3.10;99.90;;;;;;4959476;28;20701;-81
2021/01/06 11:46:32;;;;;;;1.90;1.63;;;3.00;99.90;;;;;;4963075;28;20034;-81
2021/01/06 11:49:26;;;;;;;1.88;1.40;;;3.00;99.90;;;;;;4967360;28;20035;-82
2021/01/06 11:52:12;;;;;;;2.53;1.85;;;2.90;99.90;;;;;;4947912;28;20039;-81
2021/01/06 11:54:45;;;;;;;2.63;1.50;;;3.00;99.90;;;;;;4958191;28;20035;-81
2021/01/06 11:57:22;;;;;;;3.88;1.70;;;3.00;99.90;;;;;;4966532;28;20046;-81
2021/01/06 12:00:12;;;;;;;3.15;1.63;;;3.10;99.90;;;;;;4960461;28;20166;-81
2021/01/06 12:02:43;;;;;;;1.70;1.40;;;3.00;99.90;;;;;;4971168;28;20082;-82
2021/01/06 12:05:20;;;;;;;2.50;1.67;;;3.00;99.90;;;;;;4968802;28;20059;-81
2021/01/06 12:08:03;;;;;;;3.00;1.80;;;3.00;99.90;;;;;;4959943;28;20031;-81
2021/01/06 12:10:52;;;;;;;1.73;1.35;;;3.00;99.90;;;;;;4958900;28;20670;-78
2021/01/06 12:13:45;;;;;;;2.05;1.52;;;3.00;99.90;;;;;;4961478;28;20137;-82
2021/01/06 12:16:24;;;;;;;5.45;1.50;;;2.90;99.90;;;;;;4959509;28;20039;-81
2021/01/06 12:19:16;;;;;;;1.50;1.30;;;2.90;99.90;;;;;;4973412;28;20046;-81
2021/01/06 12:21:52;;;;;;;1.27;1.17;;;2.90;99.90;;;;;;4975500;28;20043;-81
2021/01/06 12:24:30;;;;;;;3.05;2.05;;;3.00;99.90;;;;;;4981035;28;20105;-81
2021/01/06 12:27:10;;;;;;;1.88;1.40;;;2.90;99.90;;;;;;4943504;28;20125;-80
2021/01/06 12:30:09;;;;;;;3.08;1.77;;;2.90;99.90;;;;;;4966692;28;20039;-80
2021/01/06 12:32:56;;;;;;;1.80;1.42;;;2.90;99.90;;;;;;4964032;28;20046;-81
2021/01/06 12:35:28;;;;;;;2.25;1.60;;;2.90;99.90;;;;;;4971104;28;20035;-80
2021/01/06 12:38:11;;;;;;;1.98;1.58;;;3.00;99.90;;;;;;4942574;28;20045;-81
2021/01/06 12:41:03;;;;;;;1.88;1.40;;;3.00;99.90;;;;;;4958485;28;20042;-81
2021/01/06 12:43:38;;;;;;;2.63;1.60;;;3.00;99.90;;;;;;4971460;28;20035;-82
2021/01/06 12:46:19;;;;;;;2.10;1.42;;;2.90;99.90;;;;;;4965086;28;20558;-82
2021/01/06 12:48:55;;;;;;;1.85;1.40;;;2.90;99.90;;;;;;4949815;28;20047;-82
2021/01/06 12:51:25;;;;;;;1.02;0.90;;;2.90;99.90;;;;;;4977977;28;20042;-82
2021/01/06 12:53:56;;;;;;;1.05;0.95;;;3.10;99.90;;;;;;4975616;28;20042;-82
2021/01/06 12:56:42;;;;;;;1.83;1.00;;;2.90;99.90;;;;;;4952870;28;20042;-79
2021/01/06 12:59:26;;;;;;;;;;;2.90;99.90;;;;;;4962286;28;20133;-78
2021/01/06 13:01:58;;;;;;;1.60;1.20;;;2.80;99.90;;;;;;4961433;28;20630;-81
2021/01/06 13:04:31;;;;;;;1.48;1.17;;;2.80;99.90;;;;;;4963618;28;20471;-79
2021/01/06 13:07:14;;;;;;;2.42;1.23;;;2.80;99.90;;;;;;4961158;28;20070;-79
2021/01/06 13:10:01;;;;;;;2.28;1.40;;;2.80;99.90;;;;;;4949520;28;20046;-79
2021/01/06 13:12:45;;;;;;;1.90;1.30;;;2.80;99.90;;;;;;4971411;28;20045;-80
2021/01/06 13:15:36;;;;;;;1.15;0.98;;;2.90;99.90;;;;;;4966508;28;20042;-79
2021/01/06 13:18:44;;;;;;;1.45;1.00;;;2.90;99.90;;;;;;4966853;28;20081;-79
2021/01/06 13:21:25;;;;;;;1.20;1.10;;;2.80;99.90;;;;;;4976653;28;20039;-79
2021/01/06 13:23:57;;;;;;;3.80;2.20;;;2.80;99.90;;;;;;4973324;28;20042;-79
2021/01/06 13:26:36;;;;;;;2.58;1.65;;;2.80;99.90;;;;;;4958163;28;20081;-79
2021/01/06 13:29:34;;;;;;;3.58;1.30;;;2.80;99.90;;;;;;4971435;28;20035;-79
2021/01/06 13:32:34;;;;;;;1.98;1.55;;;2.80;99.90;;;;;;4968397;28;20096;-79
2021/01/06 13:35:01;;;;;;;2.40;1.55;;;2.80;99.90;;;;;;4967897;28;20030;-79
2021/01/06 13:37:35;;;;;;;2.05;1.38;;;2.80;99.90;;;;;;4969793;28;20031;-79
2021/01/06 13:40:15;;;;;;;1.90;1.38;;;2.80;99.90;;;;;;4953450;28;20524;-79
2021/01/06 13:43:02;;;;;;;2.60;1.50;;;2.80;99.90;;;;;;4966746;28;20044;-79
2021/01/06 13:45:46;;;;;;;1.20;1.08;;;2.80;99.90;;;;;;4966402;28;20043;-79